Time;durP1;ratioP1;P1;durP2;ratioP2;P2;SDS_P1;SDS_P2;PMS_P1;PMS_P2;Temp;Humidity;BMP_temperature;BMP_pressure;BME280_temperature;BME280_humidity;BME280_pressure;Samples;Min_cycle;Max_cycle;Signal;HPM_P1;HPM_P2
2021/09/19 00:00:17;;;;;;;8.40;7.83;;;12.50;99.90;;;;;;4872499;29;21082;-92
2021/09/19 00:02:45;;;;;;;7.60;7.10;;;12.60;99.90;;;;;;4869304;29;20638;-93
2021/09/19 00:05:13;;;;;;;8.13;7.53;;;12.60;99.90;;;;;;4875855;29;20645;-93
2021/09/19 00:07:40;;;;;;;7.30;6.80;;;12.70;99.90;;;;;;4872368;29;20734;-91
2021/09/19 00:10:08;;;;;;;7.97;7.47;;;12.70;99.90;;;;;;4882544;29;20658;-92
2021/09/19 00:12:36;;;;;;;7.47;6.93;;;12.70;99.90;;;;;;4876535;29;20662;-92
2021/09/19 00:15:05;;;;;;;7.63;7.03;;;12.70;99.90;;;;;;4877723;29;20638;-93
2021/09/19 00:17:33;;;;;;;8.27;7.50;;;12.70;99.90;;;;;;4875286;29;20705;-93
2021/09/19 00:20:00;;;;;;;7.13;6.63;;;12.70;99.90;;;;;;4874988;29;20680;-94
2021/09/19 00:22:26;;;;;;;9.00;8.40;;;12.60;99.90;;;;;;4873126;29;20644;-92
2021/09/19 00:24:53;;;;;;;8.87;8.13;;;12.60;99.90;;;;;;4869977;29;20648;-92
2021/09/19 00:27:21;;;;;;;8.30;7.70;;;12.60;99.90;;;;;;4872022;29;20638;-93
2021/09/19 00:29:48;;;;;;;7.33;6.83;;;12.50;99.90;;;;;;4879549;29;20707;-95
2021/09/19 00:32:15;;;;;;;7.97;7.47;;;12.50;99.90;;;;;;4880229;29;20677;-93
2021/09/19 00:37:39;;;;;;;8.17;7.60;;;12.40;99.90;;;;;;4879910;29;20630;-93
2021/09/19 00:40:08;;;;;;;8.03;7.53;;;12.30;99.90;;;;;;4876865;29;20666;-94
2021/09/19 00:42:37;;;;;;;7.37;6.87;;;12.30;99.90;;;;;;4876834;29;21144;-94
2021/09/19 00:45:07;;;;;;;8.33;7.83;;;12.30;99.90;;;;;;4869769;29;20645;-93
2021/09/19 00:47:34;;;;;;;8.43;7.77;;;12.30;99.90;;;;;;4878687;29;20644;-95
2021/09/19 00:50:04;;;;;;;9.50;8.73;;;12.20;99.90;;;;;;4880162;29;20661;-93
2021/09/19 00:52:31;;;;;;;8.20;7.60;;;12.20;99.90;;;;;;4880872;29;20676;-93
2021/09/19 00:55:01;;;;;;;8.63;7.93;;;12.10;99.90;;;;;;4882021;29;20649;-94
2021/09/19 00:57:29;;;;;;;8.50;8.00;;;12.10;99.90;;;;;;4876221;29;20646;-96
2021/09/19 00:59:57;;;;;;;8.53;7.90;;;12.00;99.90;;;;;;4877081;29;20700;-94
2021/09/19 01:02:27;;;;;;;10.70;10.00;;;11.90;99.90;;;;;;4878511;29;20640;-95
2021/09/19 01:04:54;;;;;;;11.80;11.00;;;11.90;99.90;;;;;;4882375;29;21244;-93
2021/09/19 01:07:23;;;;;;;11.63;10.83;;;11.90;99.90;;;;;;4875331;29;20653;-95
2021/09/19 01:09:52;;;;;;;13.50;12.60;;;12.00;99.90;;;;;;4882380;29;20672;-96
2021/09/19 01:12:23;;;;;;;15.17;13.97;;;11.90;99.90;;;;;;4881777;29;20728;-96
2021/09/19 01:14:55;;;;;;;14.53;13.53;;;11.90;99.90;;;;;;4893850;29;20652;-96
2021/09/19 01:17:22;;;;;;;17.10;15.80;;;11.90;99.90;;;;;;4883952;29;20688;-93
2021/09/19 01:19:52;;;;;;;15.90;14.90;;;11.80;99.90;;;;;;4881755;29;20673;-93
2021/09/19 01:22:19;;;;;;;15.57;14.37;;;11.90;99.90;;;;;;4871989;29;20640;-93
2021/09/19 01:24:47;;;;;;;15.67;14.47;;;11.80;99.90;;;;;;4872575;29;20646;-93
2021/09/19 01:27:14;;;;;;;17.83;16.53;;;11.80;99.90;;;;;;4879179;29;20646;-93
2021/09/19 01:29:48;;;;;;;15.70;14.70;;;11.80;99.90;;;;;;4879188;29;20657;-94
2021/09/19 01:32:21;;;;;;;15.23;13.93;;;11.80;99.90;;;;;;4888140;29;20725;-94
2021/09/19 01:34:49;;;;;;;14.60;13.67;;;11.70;99.90;;;;;;4886738;29;20645;-93
2021/09/19 01:37:21;;;;;;;12.00;11.20;;;11.60;99.90;;;;;;4886817;29;20642;-93
2021/09/19 01:39:52;;;;;;;12.50;11.50;;;11.60;99.90;;;;;;4892243;29;20760;-95
2021/09/19 01:42:19;;;;;;;12.03;11.00;;;11.60;99.90;;;;;;4897039;29;20610;-96
2021/09/19 01:44:48;;;;;;;12.03;11.27;;;11.60;99.90;;;;;;4911850;29;20783;-95
2021/09/19 01:47:14;;;;;;;11.60;10.70;;;11.60;99.90;;;;;;4885980;29;20665;-95
2021/09/19 01:49:46;;;;;;;11.60;10.80;;;11.60;99.90;;;;;;4890023;29;20668;-95
2021/09/19 01:52:15;;;;;;;10.30;9.40;;;11.70;99.90;;;;;;4884895;29;20670;-95
2021/09/19 01:54:42;;;;;;;11.00;10.30;;;11.60;99.90;;;;;;4884229;29;20642;-96
2021/09/19 01:57:13;;;;;;;11.43;10.63;;;11.60;99.90;;;;;;4893617;29;20703;-94
2021/09/19 01:59:43;;;;;;;11.07;10.17;;;11.60;99.90;;;;;;4891617;29;20666;-96
2021/09/19 02:02:10;;;;;;;10.90;10.07;;;11.50;99.90;;;;;;4907518;29;20625;-95
2021/09/19 02:04:41;;;;;;;10.63;9.93;;;11.50;99.90;;;;;;4883241;29;20644;-94
2021/09/19 02:07:07;;;;;;;10.53;9.83;;;11.50;99.90;;;;;;4884701;29;20729;-95
2021/09/19 02:09:34;;;;;;;10.47;9.87;;;11.40;99.90;;;;;;4883306;29;21295;-94
2021/09/19 02:12:02;;;;;;;9.97;9.20;;;11.40;99.90;;;;;;4889246;29;21120;-95
2021/09/19 02:14:30;;;;;;;11.50;10.63;;;11.40;99.90;;;;;;4895988;29;20645;-95
2021/09/19 02:17:02;;;;;;;11.23;10.53;;;11.30;99.90;;;;;;4902942;29;20633;-96
2021/09/19 02:19:29;;;;;;;11.27;10.47;;;11.30;99.90;;;;;;4904102;29;20668;-96
2021/09/19 02:21:56;;;;;;;13.07;12.17;;;11.20;99.90;;;;;;4909113;29;20652;-94
2021/09/19 02:24:23;;;;;;;11.50;10.70;;;11.30;99.90;;;;;;4905231;29;20652;-95
2021/09/19 02:26:51;;;;;;;11.57;10.77;;;11.30;99.90;;;;;;4906341;29;20665;-94
2021/09/19 02:29:18;;;;;;;12.50;11.57;;;11.30;99.90;;;;;;4897414;29;20651;-93
2021/09/19 02:31:47;;;;;;;11.57;10.67;;;11.40;99.90;;;;;;4904390;29;20740;-94
2021/09/19 02:34:14;;;;;;;12.13;11.23;;;11.30;99.90;;;;;;4899611;29;20642;-95
2021/09/19 02:36:41;;;;;;;11.10;10.30;;;11.30;99.90;;;;;;4897142;29;20662;-94
2021/09/19 02:39:09;;;;;;;10.23;9.50;;;11.30;99.90;;;;;;4902083;29;20631;-93
2021/09/19 02:41:36;;;;;;;9.90;9.00;;;11.20;99.90;;;;;;4899062;29;20639;-94
2021/09/19 02:44:04;;;;;;;10.03;9.27;;;11.20;99.90;;;;;;4899472;29;20650;-94
2021/09/19 02:46:32;;;;;;;9.63;9.03;;;11.20;99.90;;;;;;4901821;29;20753;-93
2021/09/19 02:49:00;;;;;;;9.03;8.43;;;11.20;99.90;;;;;;4895957;29;20623;-94
2021/09/19 02:51:27;;;;;;;9.67;8.97;;;11.20;99.90;;;;;;4902348;29;20625;-94
2021/09/19 02:53:54;;;;;;;8.33;7.63;;;11.20;99.90;;;;;;4902047;29;21055;-94
2021/09/19 02:56:21;;;;;;;8.00;7.40;;;11.30;99.90;;;;;;4898238;29;20674;-92
2021/09/19 02:58:48;;;;;;;9.63;8.93;;;11.20;99.90;;;;;;4891737;29;20628;-93
2021/09/19 03:01:15;;;;;;;8.30;7.60;;;11.10;99.90;;;;;;4896730;29;20624;-92
2021/09/19 03:03:42;;;;;;;9.60;9.00;;;11.10;99.90;;;;;;4892138;29;20631;-92
2021/09/19 03:06:10;;;;;;;9.40;8.80;;;11.20;99.90;;;;;;4896932;29;20647;-93
2021/09/19 03:08:37;;;;;;;8.57;7.87;;;11.10;99.90;;;;;;4896256;29;20634;-91
2021/09/19 03:11:04;;;;;;;8.90;8.13;;;11.10;99.90;;;;;;4900070;29;20646;-93
2021/09/19 03:13:31;;;;;;;8.00;7.50;;;11.00;99.90;;;;;;4900325;29;20673;-92
2021/09/19 03:15:58;;;;;;;8.40;7.90;;;11.00;99.90;;;;;;4900820;29;20656;-93
2021/09/19 03:18:24;;;;;;;9.30;8.60;;;11.00;99.90;;;;;;4902822;29;20625;-93
2021/09/19 03:20:51;;;;;;;10.20;9.50;;;11.10;99.90;;;;;;4903072;29;20642;-96
2021/09/19 03:23:20;;;;;;;13.37;12.47;;;11.10;99.90;;;;;;4900510;29;20721;-93
2021/09/19 03:25:47;;;;;;;13.40;12.43;;;11.10;99.90;;;;;;4896422;29;20657;-94
2021/09/19 03:28:13;;;;;;;12.63;11.53;;;11.10;99.90;;;;;;4898793;29;20625;-93
2021/09/19 03:30:41;;;;;;;11.10;10.30;;;11.10;99.90;;;;;;4898866;29;20637;-93
2021/09/19 03:33:08;;;;;;;12.77;11.90;;;11.00;99.90;;;;;;4895086;29;20666;-94
2021/09/19 03:35:35;;;;;;;12.37;11.37;;;11.10;99.90;;;;;;4895421;29;20698;-93
2021/09/19 03:38:02;;;;;;;13.43;12.43;;;11.10;99.90;;;;;;4906780;29;20717;-93
2021/09/19 03:40:30;;;;;;;14.90;13.90;;;11.10;99.90;;;;;;4897935;29;20645;-92
2021/09/19 03:42:57;;;;;;;13.53;12.63;;;11.10;99.90;;;;;;4894465;29;20710;-92
2021/09/19 03:45:28;;;;;;;11.23;10.43;;;11.10;99.90;;;;;;4897647;29;20618;-93
2021/09/19 03:47:57;;;;;;;11.33;10.30;;;11.10;99.90;;;;;;4895572;29;20630;-94
2021/09/19 03:50:24;;;;;;;10.13;9.43;;;11.10;99.90;;;;;;4897311;29;20634;-94
2021/09/19 03:52:51;;;;;;;11.40;10.60;;;11.00;99.90;;;;;;4907308;29;21705;-92
2021/09/19 03:55:17;;;;;;;11.47;10.67;;;11.00;99.90;;;;;;4899614;29;20708;-93
2021/09/19 03:57:46;;;;;;;14.10;13.10;;;11.00;99.90;;;;;;4904834;29;20619;-93
2021/09/19 04:00:14;;;;;;;15.30;14.13;;;10.90;99.90;;;;;;4898930;29;20634;-94
2021/09/19 04:02:43;;;;;;;15.53;14.37;;;11.00;99.90;;;;;;4899451;29;20702;-95
2021/09/19 04:05:13;;;;;;;18.40;16.90;;;10.90;99.90;;;;;;4899011;29;20625;-94
2021/09/19 04:07:41;;;;;;;16.43;15.17;;;11.00;99.90;;;;;;4895538;29;20667;-95
2021/09/19 04:10:10;;;;;;;17.33;16.10;;;11.00;99.90;;;;;;4899607;29;20637;-94
2021/09/19 04:12:39;;;;;;;16.80;15.70;;;11.00;99.90;;;;;;4894734;29;20694;-95
2021/09/19 04:15:10;;;;;;;17.30;16.10;;;11.00;99.90;;;;;;4900058;29;20695;-95
2021/09/19 04:17:37;;;;;;;17.30;16.20;;;10.90;99.90;;;;;;4901628;29;20617;-94
2021/09/19 04:20:07;;;;;;;17.07;15.93;;;10.90;99.90;;;;;;4898949;29;20701;-94
2021/09/19 04:22:36;;;;;;;15.80;14.70;;;10.90;99.90;;;;;;4902002;29;20721;-96
2021/09/19 04:25:21;;;;;;;15.90;14.80;;;10.90;99.90;;;;;;4909135;29;20678;-95
2021/09/19 04:27:49;;;;;;;15.47;14.17;;;10.80;99.90;;;;;;4896957;29;20725;-94
2021/09/19 04:30:17;;;;;;;13.90;12.90;;;10.90;99.90;;;;;;4904146;29;20706;-94
2021/09/19 04:32:51;;;;;;;9.07;8.47;;;10.80;99.90;;;;;;4893581;29;20735;-95
2021/09/19 04:35:18;;;;;;;9.30;8.50;;;10.70;99.90;;;;;;4886135;29;20622;-94
2021/09/19 04:37:45;;;;;;;8.40;7.80;;;10.70;99.90;;;;;;4881038;29;20673;-94
2021/09/19 04:40:15;;;;;;;8.90;8.20;;;10.60;99.90;;;;;;4892422;29;20643;-94
2021/09/19 04:42:42;;;;;;;9.77;8.87;;;10.60;99.90;;;;;;4881634;29;20637;-93
2021/09/19 04:45:10;;;;;;;10.53;9.73;;;10.70;99.90;;;;;;4884512;29;20622;-94
2021/09/19 04:47:39;;;;;;;10.50;9.60;;;10.60;99.90;;;;;;4901654;29;20649;-96
2021/09/19 04:50:10;;;;;;;10.53;9.77;;;10.60;99.90;;;;;;4886491;29;20635;-94
2021/09/19 04:52:38;;;;;;;10.20;9.50;;;10.60;99.90;;;;;;4912492;23;20665;-95
2021/09/19 04:55:06;;;;;;;8.40;7.80;;;10.50;99.90;;;;;;4878685;29;20641;-94
2021/09/19 04:57:33;;;;;;;11.67;10.77;;;10.50;99.90;;;;;;4882636;29;20637;-94
2021/09/19 05:00:01;;;;;;;11.70;10.90;;;10.50;99.90;;;;;;4888798;29;20639;-95
2021/09/19 05:02:31;;;;;;;10.90;9.97;;;10.50;99.90;;;;;;4879844;29;20645;-96
2021/09/19 05:05:00;;;;;;;11.30;10.60;;;10.50;99.90;;;;;;4860041;29;20635;-96
2021/09/19 05:07:29;;;;;;;10.50;9.50;;;10.50;99.90;;;;;;4859323;29;20742;-95
2021/09/19 05:09:56;;;;;;;10.07;9.37;;;10.50;99.90;;;;;;4858161;29;20635;-94
2021/09/19 05:12:23;;;;;;;9.80;9.10;;;10.50;99.90;;;;;;4855644;29;20725;-95
2021/09/19 05:14:54;;;;;;;9.20;8.60;;;10.50;99.90;;;;;;4858455;29;20677;-96
2021/09/19 05:17:21;;;;;;;9.80;8.90;;;10.40;99.90;;;;;;4858330;29;21132;-94
2021/09/19 05:19:49;;;;;;;10.30;9.50;;;10.50;99.90;;;;;;4859107;29;20645;-93
2021/09/19 05:22:17;;;;;;;10.10;9.40;;;10.40;99.90;;;;;;4863047;29;20749;-94
2021/09/19 05:24:47;;;;;;;10.40;9.60;;;10.50;99.90;;;;;;4860180;29;21157;-95
2021/09/19 05:27:16;;;;;;;9.20;8.50;;;10.50;99.90;;;;;;4867550;29;20675;-95
2021/09/19 05:29:50;;;;;;;8.13;7.60;;;10.50;99.90;;;;;;4866511;29;20639;-95
2021/09/19 05:32:17;;;;;;;9.30;8.60;;;10.40;99.90;;;;;;4858136;29;20742;-94
2021/09/19 05:34:44;;;;;;;10.23;9.53;;;10.50;99.90;;;;;;4860025;29;21147;-94
2021/09/19 05:37:11;;;;;;;9.03;8.40;;;10.60;99.90;;;;;;4860208;29;20641;-94
2021/09/19 05:39:41;;;;;;;8.27;7.77;;;10.60;99.90;;;;;;4859052;29;20638;-93
2021/09/19 05:42:09;;;;;;;8.90;8.30;;;10.70;99.90;;;;;;4863441;29;20994;-95
2021/09/19 05:44:55;;;;;;;8.10;7.60;;;10.70;99.90;;;;;;4922726;23;20791;-96
2021/09/19 05:47:22;;;;;;;7.80;7.20;;;10.80;99.90;;;;;;4889482;29;20973;-95
2021/09/19 05:49:49;;;;;;;8.30;7.70;;;10.80;99.90;;;;;;4872978;29;20638;-95
2021/09/19 05:52:21;;;;;;;9.20;8.60;;;10.80;99.90;;;;;;4886770;29;20645;-96
2021/09/19 05:54:55;;;;;;;7.60;7.10;;;10.80;99.90;;;;;;4901860;29;20690;-94
2021/09/19 05:57:23;;;;;;;8.00;7.43;;;10.80;99.90;;;;;;4901536;29;20626;-96
2021/09/19 05:59:52;;;;;;;8.70;8.10;;;10.80;99.90;;;;;;4894469;29;20677;-93
2021/09/19 06:02:19;;;;;;;8.60;8.00;;;10.90;99.90;;;;;;4888999;29;20827;-95
2021/09/19 06:04:47;;;;;;;8.77;8.17;;;11.00;99.90;;;;;;4872636;29;20740;-93
2021/09/19 06:07:14;;;;;;;9.80;9.10;;;11.10;99.90;;;;;;4878738;29;20642;-93
2021/09/19 06:09:41;;;;;;;10.53;9.83;;;11.10;99.90;;;;;;4874156;29;20864;-93
2021/09/19 06:12:10;;;;;;;13.20;12.30;;;11.20;99.90;;;;;;4879817;29;20648;-93
2021/09/19 06:14:37;;;;;;;13.53;12.50;;;11.30;99.90;;;;;;4883870;29;21089;-94
2021/09/19 06:17:04;;;;;;;15.17;14.03;;;11.30;99.90;;;;;;4891406;29;20638;-94
2021/09/19 06:19:35;;;;;;;13.30;12.40;;;11.40;99.90;;;;;;4881699;29;20630;-96
2021/09/19 06:22:03;;;;;;;12.60;11.53;;;11.60;99.90;;;;;;4886880;29;20648;-91
2021/09/19 06:24:32;;;;;;;9.33;8.70;;;11.60;99.90;;;;;;4872647;29;20657;-92
2021/09/19 06:27:00;;;;;;;10.90;10.17;;;11.80;99.90;;;;;;4873759;29;20634;-93
2021/09/19 06:29:29;;;;;;;10.27;9.57;;;11.90;99.90;;;;;;4880684;29;20652;-92
2021/09/19 06:31:56;;;;;;;8.27;7.77;;;12.00;99.90;;;;;;4873001;29;20657;-92
2021/09/19 06:34:23;;;;;;;8.50;7.93;;;12.30;99.90;;;;;;4873659;29;21056;-93
2021/09/19 06:36:50;;;;;;;13.90;12.70;;;12.40;99.90;;;;;;4875316;29;20646;-92
2021/09/19 06:39:17;;;;;;;10.90;10.20;;;12.50;99.90;;;;;;4871586;29;20646;-92
2021/09/19 06:41:51;;;;;;;11.90;11.10;;;12.50;99.90;;;;;;4885542;29;20638;-92
2021/09/19 06:44:19;;;;;;;15.17;13.97;;;12.60;99.90;;;;;;4895679;29;20681;-93
2021/09/19 06:46:47;;;;;;;11.77;10.77;;;12.70;99.90;;;;;;4878546;29;21010;-93
2021/09/19 06:49:14;;;;;;;10.17;9.27;;;13.00;99.90;;;;;;4873996;29;20772;-93
2021/09/19 06:51:41;;;;;;;9.17;8.57;;;13.20;99.90;;;;;;4871192;29;21123;-93
2021/09/19 06:54:08;;;;;;;8.27;7.70;;;13.30;99.90;;;;;;4877359;29;20700;-93
2021/09/19 06:56:35;;;;;;;7.30;6.80;;;13.40;99.90;;;;;;4874549;29;20714;-93
2021/09/19 06:59:02;;;;;;;10.43;9.63;;;13.40;99.90;;;;;;4877859;29;20649;-93
2021/09/19 07:01:29;;;;;;;10.60;10.00;;;13.60;99.90;;;;;;4875191;29;20948;-92
2021/09/19 07:03:57;;;;;;;10.20;9.40;;;13.40;99.90;;;;;;4873225;29;20638;-92
2021/09/19 07:06:24;;;;;;;9.43;8.73;;;13.40;99.90;;;;;;4866124;29;20765;-91
2021/09/19 07:08:51;;;;;;;8.00;7.20;;;13.50;99.90;;;;;;4864847;29;20781;-91
2021/09/19 07:11:23;;;;;;;5.53;5.13;;;13.80;99.90;;;;;;4873036;29;20605;-92
2021/09/19 07:13:51;;;;;;;5.10;4.70;;;14.00;99.90;;;;;;4870646;29;21349;-91
2021/09/19 07:16:18;;;;;;;4.90;4.60;;;14.30;99.90;;;;;;4871803;29;20626;-90
2021/09/19 07:18:44;;;;;;;4.97;4.67;;;14.50;99.90;;;;;;4873170;29;20805;-89
2021/09/19 07:21:14;;;;;;;4.90;4.60;;;14.60;99.90;;;;;;4869673;29;20845;-89
2021/09/19 07:23:40;;;;;;;4.70;4.20;;;14.70;99.90;;;;;;4870920;29;21287;-89
2021/09/19 07:26:07;;;;;;;3.87;3.57;;;14.70;99.90;;;;;;4864987;29;20613;-89
2021/09/19 07:28:35;;;;;;;5.10;4.70;;;14.90;99.90;;;;;;4869234;29;20661;-89
2021/09/19 07:31:02;;;;;;;4.10;3.90;;;14.90;99.90;;;;;;4873893;29;21150;-89
2021/09/19 07:33:29;;;;;;;4.57;4.27;;;15.10;99.90;;;;;;4870118;29;20657;-89
2021/09/19 07:35:57;;;;;;;4.23;3.93;;;15.30;99.90;;;;;;4864080;29;21009;-88
2021/09/19 07:38:25;;;;;;;4.63;4.10;;;15.30;99.90;;;;;;4870256;29;20673;-88
2021/09/19 07:40:53;;;;;;;4.43;4.13;;;15.40;99.90;;;;;;4868756;29;20649;-88
2021/09/19 07:43:20;;;;;;;4.07;3.77;;;15.50;99.90;;;;;;4865245;29;20652;-88
2021/09/19 07:45:47;;;;;;;3.70;3.40;;;15.70;99.90;;;;;;4870930;29;21324;-89
2021/09/19 07:48:17;;;;;;;3.83;3.63;;;15.80;99.90;;;;;;4872579;29;20660;-88
2021/09/19 07:50:45;;;;;;;3.30;2.90;;;15.80;99.90;;;;;;4867017;29;20762;-88
2021/09/19 07:53:14;;;;;;;4.57;3.77;;;15.90;99.90;;;;;;4870508;29;20634;-87
2021/09/19 07:55:43;;;;;;;3.70;3.23;;;16.20;99.90;;;;;;4870598;29;20973;-87
2021/09/19 07:58:10;;;;;;;3.70;3.43;;;16.00;99.90;;;;;;4869569;29;20744;-90
2021/09/19 08:00:38;;;;;;;3.57;3.27;;;16.20;99.90;;;;;;4867727;29;20833;-90
2021/09/19 08:03:05;;;;;;;3.93;3.13;;;16.50;99.90;;;;;;4867630;29;20960;-90
2021/09/19 08:05:32;;;;;;;4.20;3.90;;;16.80;99.90;;;;;;4865629;29;20633;-90
2021/09/19 08:07:58;;;;;;;3.03;2.83;;;16.70;99.90;;;;;;4869731;29;20681;-88
2021/09/19 08:10:28;;;;;;;4.83;4.53;;;16.70;99.90;;;;;;4866096;29;21254;-88
2021/09/19 08:12:56;;;;;;;5.90;5.47;;;16.90;99.90;;;;;;4868667;29;20729;-89
2021/09/19 08:15:23;;;;;;;6.23;5.63;;;16.60;99.90;;;;;;4873824;29;20673;-89
2021/09/19 08:17:50;;;;;;;6.37;5.97;;;16.50;99.90;;;;;;4878364;29;20762;-89
2021/09/19 08:20:18;;;;;;;5.57;5.17;;;16.60;99.90;;;;;;4869386;29;20764;-88
2021/09/19 08:22:45;;;;;;;6.23;5.67;;;16.50;99.90;;;;;;4864193;29;21268;-87
2021/09/19 08:25:13;;;;;;;6.27;5.70;;;16.50;99.90;;;;;;4865902;29;20642;-88
2021/09/19 08:27:41;;;;;;;5.63;5.23;;;16.50;99.90;;;;;;4868479;29;20669;-88
2021/09/19 08:30:12;;;;;;;5.40;5.00;;;16.80;99.90;;;;;;4867197;29;20768;-87
2021/09/19 08:32:39;;;;;;;5.50;5.00;;;17.00;99.90;;;;;;4868769;29;20721;-87
2021/09/19 08:35:08;;;;;;;5.50;5.03;;;17.10;99.90;;;;;;4866797;29;21274;-87
2021/09/19 08:37:36;;;;;;;4.63;4.33;;;17.30;99.90;;;;;;4862113;29;20672;-87
2021/09/19 08:40:03;;;;;;;5.20;4.80;;;17.40;99.90;;;;;;4866311;29;20654;-86
2021/09/19 08:42:30;;;;;;;5.33;4.93;;;17.50;99.90;;;;;;4863845;29;20736;-87
2021/09/19 08:44:57;;;;;;;6.37;4.80;;;17.60;99.90;;;;;;4864722;29;20726;-87
2021/09/19 08:47:29;;;;;;;5.17;4.77;;;17.30;99.90;;;;;;4870112;29;20707;-86
2021/09/19 08:49:56;;;;;;;4.40;4.10;;;17.60;99.90;;;;;;4863790;29;20746;-86
2021/09/19 08:52:23;;;;;;;4.23;3.93;;;17.60;99.90;;;;;;4865439;29;21290;-85
2021/09/19 08:54:50;;;;;;;7.17;4.30;;;17.70;99.90;;;;;;4863627;29;20773;-86
2021/09/19 08:57:17;;;;;;;4.60;4.20;;;17.90;99.90;;;;;;4866757;29;20765;-86
2021/09/19 08:59:46;;;;;;;4.40;4.10;;;18.00;99.90;;;;;;4867605;29;20630;-87
2021/09/19 09:02:14;;;;;;;4.50;4.23;;;17.90;99.90;;;;;;4875036;29;21520;-87
2021/09/19 09:04:43;;;;;;;4.30;3.90;;;18.40;99.90;;;;;;4873956;29;20634;-87
2021/09/19 09:07:11;;;;;;;4.23;3.93;;;18.20;99.90;;;;;;4875850;29;20977;-87
2021/09/19 09:09:38;;;;;;;4.53;4.17;;;18.00;99.90;;;;;;4871197;29;20630;-87
2021/09/19 09:12:07;;;;;;;4.20;3.90;;;18.20;99.90;;;;;;4874409;29;21135;-87
2021/09/19 09:14:43;;;;;;;4.23;3.93;;;18.30;99.90;;;;;;4871698;29;20674;-87
2021/09/19 09:17:12;;;;;;;4.60;4.30;;;18.50;99.90;;;;;;4868479;29;20666;-87
2021/09/19 09:19:39;;;;;;;4.37;3.97;;;18.50;99.90;;;;;;4869323;29;20996;-87
2021/09/19 09:22:09;;;;;;;4.53;4.23;;;19.00;99.90;;;;;;4868726;29;20643;-88
2021/09/19 09:24:37;;;;;;;5.27;4.30;;;18.70;99.90;;;;;;4867558;29;20649;-87
2021/09/19 09:27:19;;;;;;;6.27;4.03;;;18.70;99.90;;;;;;4866793;29;20677;-87
2021/09/19 09:30:14;;;;;;;3.90;3.53;;;18.50;99.90;;;;;;4868318;29;20644;-87
2021/09/19 09:32:57;;;;;;;3.70;3.50;;;18.90;99.90;;;;;;4850125;29;20733;-87
2021/09/19 09:35:30;;;;;;;4.37;4.07;;;19.00;99.90;;;;;;4870187;29;20644;-87
2021/09/19 09:37:58;;;;;;;3.97;3.67;;;19.40;99.90;;;;;;4864884;29;20669;-87
2021/09/19 09:40:29;;;;;;;4.77;4.33;;;19.50;99.90;;;;;;4867919;29;20640;-87
2021/09/19 09:43:04;;;;;;;4.40;4.10;;;19.60;99.90;;;;;;4872206;29;20702;-88
2021/09/19 09:45:32;;;;;;;4.53;4.13;;;19.90;99.90;;;;;;4865272;29;20641;-87
2021/09/19 09:47:59;;;;;;;3.97;3.70;;;20.10;99.90;;;;;;4869848;29;21272;-87
2021/09/19 09:50:27;;;;;;;3.90;3.60;;;20.00;99.90;;;;;;4869796;29;20721;-88
2021/09/19 09:53:12;;;;;;;4.03;3.73;;;20.00;99.90;;;;;;4870144;29;20638;-87
2021/09/19 09:55:43;;;;;;;4.43;4.13;;;20.00;99.90;;;;;;4869740;29;20685;-87
2021/09/19 09:58:11;;;;;;;4.47;4.17;;;19.70;99.90;;;;;;4870504;29;20670;-87
2021/09/19 10:00:39;;;;;;;4.23;3.90;;;19.70;99.90;;;;;;4870543;29;20661;-87
2021/09/19 10:03:06;;;;;;;4.00;3.70;;;19.80;99.90;;;;;;4871524;29;20630;-87
2021/09/19 10:05:34;;;;;;;4.07;3.67;;;20.20;99.90;;;;;;4864676;29;20617;-88
2021/09/19 10:08:01;;;;;;;4.03;3.73;;;20.70;99.90;;;;;;4868795;29;20664;-88
2021/09/19 10:10:38;;;;;;;4.70;4.30;;;20.60;99.90;;;;;;4871344;29;20641;-87
2021/09/19 10:13:06;;;;;;;4.47;4.07;;;20.60;99.90;;;;;;4868900;29;21200;-87
2021/09/19 10:15:33;;;;;;;4.93;4.63;;;21.20;99.90;;;;;;4867411;29;21251;-87
2021/09/19 10:18:01;;;;;;;4.73;4.43;;;21.10;99.90;;;;;;4873671;29;20657;-89
2021/09/19 10:20:30;;;;;;;4.43;4.10;;;21.30;99.90;;;;;;4873317;29;20638;-88
2021/09/19 10:23:04;;;;;;;4.47;4.17;;;21.60;99.90;;;;;;4871669;29;20636;-87
2021/09/19 10:25:49;;;;;;;5.00;4.60;;;21.80;99.90;;;;;;4869878;29;21196;-87
2021/09/19 10:28:29;;;;;;;4.83;4.43;;;22.40;99.90;;;;;;4870343;29;20678;-87
2021/09/19 10:31:19;;;;;;;4.40;4.10;;;21.80;99.90;;;;;;4868831;29;20634;-88
2021/09/19 10:33:50;;;;;;;5.50;5.03;;;22.60;99.90;;;;;;4874199;29;20622;-87
2021/09/19 10:36:38;;;;;;;4.63;4.27;;;22.10;99.90;;;;;;4868314;29;20634;-87
2021/09/19 10:39:20;;;;;;;4.33;4.00;;;22.10;99.90;;;;;;4873397;29;20626;-88
2021/09/19 10:42:21;;;;;;;4.53;4.13;;;22.00;99.90;;;;;;4868669;29;20634;-88
2021/09/19 10:45:13;;;;;;;4.80;4.50;;;21.90;99.90;;;;;;4825638;29;20780;-88
2021/09/19 10:47:47;;;;;;;4.10;3.80;;;22.30;99.90;;;;;;4869069;29;20777;-88
2021/09/19 10:50:26;;;;;;;3.67;3.37;;;22.70;99.90;;;;;;4878753;29;21172;-87
2021/09/19 10:52:56;;;;;;;3.47;3.20;;;23.30;99.90;;;;;;4869391;29;20722;-88
2021/09/19 10:55:34;;;;;;;4.70;4.40;;;23.60;99.90;;;;;;4870370;29;20657;-88
2021/09/19 10:58:11;;;;;;;4.67;4.27;;;22.50;99.90;;;;;;4875618;29;20757;-90
2021/09/19 11:00:40;;;;;;;3.63;3.33;;;22.30;99.90;;;;;;4873915;29;21041;-87
2021/09/19 11:03:13;;;;;;;3.90;3.60;;;22.10;99.90;;;;;;4875677;29;21252;-87
2021/09/19 11:05:45;;;;;;;4.33;3.70;;;22.60;99.90;;;;;;4864474;29;20657;-87
2021/09/19 11:08:23;;;;;;;4.30;3.90;;;23.20;99.90;;;;;;4871935;29;20665;-88
2021/09/19 11:11:22;;;;;;;4.20;3.90;;;23.40;99.90;;;;;;4866455;29;21109;-87
2021/09/19 11:13:59;;;;;;;3.37;3.17;;;23.20;99.90;;;;;;4865800;29;20964;-89
2021/09/19 11:16:30;;;;;;;3.60;3.40;;;23.80;99.90;;;;;;4867062;29;20766;-87
2021/09/19 11:19:00;;;;;;;3.87;3.57;;;23.50;99.90;;;;;;4870146;29;20796;-86
2021/09/19 11:21:37;;;;;;;3.93;3.63;;;24.40;99.90;;;;;;4868397;29;21282;-87
2021/09/19 11:24:06;;;;;;;3.80;3.50;;;24.40;99.50;;;;;;4866953;29;20615;-88
2021/09/19 11:26:38;;;;;;;3.83;3.37;;;24.90;98.50;;;;;;4872722;29;20645;-88
2021/09/19 11:29:09;;;;;;;5.00;4.50;;;25.10;97.60;;;;;;4870414;29;20993;-88
2021/09/19 11:31:37;;;;;;;3.90;3.60;;;24.10;97.40;;;;;;4872810;29;20741;-87
2021/09/19 11:34:10;;;;;;;4.40;4.10;;;24.50;99.10;;;;;;4870468;29;20725;-87
2021/09/19 11:36:42;;;;;;;4.47;4.20;;;25.00;95.10;;;;;;4863852;29;20634;-88
2021/09/19 11:39:08;;;;;;;4.87;4.50;;;24.80;95.90;;;;;;4871816;29;20844;-88
2021/09/19 11:41:36;;;;;;;4.70;4.30;;;24.40;95.60;;;;;;4871245;29;20750;-88
2021/09/19 11:44:03;;;;;;;4.10;3.80;;;24.80;95.80;;;;;;4872821;29;20654;-88
2021/09/19 11:46:31;;;;;;;3.93;3.60;;;25.80;95.30;;;;;;4865600;29;20638;-88
2021/09/19 11:48:58;;;;;;;4.30;3.70;;;25.60;94.50;;;;;;4865598;29;20629;-88
2021/09/19 11:51:25;;;;;;;4.70;4.40;;;26.30;92.70;;;;;;4869495;29;20638;-88
2021/09/19 11:53:54;;;;;;;3.73;3.43;;;25.80;92.30;;;;;;4868601;29;20688;-88
2021/09/19 11:56:23;;;;;;;4.60;4.13;;;24.80;95.00;;;;;;4868646;29;20680;-88
2021/09/19 11:58:51;;;;;;;3.77;3.47;;;23.90;97.50;;;;;;4874023;29;21270;-88
2021/09/19 12:01:24;;;;;;;3.97;3.67;;;23.50;99.50;;;;;;4864241;29;20634;-88
2021/09/19 12:03:53;;;;;;;3.80;3.60;;;23.90;98.10;;;;;;4868122;29;20645;-87
2021/09/19 12:06:21;;;;;;;3.43;3.23;;;24.90;96.30;;;;;;4864374;29;20626;-88
2021/09/19 12:08:50;;;;;;;4.70;4.40;;;25.30;95.20;;;;;;4868549;29;20666;-88
2021/09/19 12:11:17;;;;;;;3.37;3.10;;;24.00;95.90;;;;;;4868307;29;21426;-87
2021/09/19 12:13:49;;;;;;;8.83;4.00;;;23.50;99.80;;;;;;4865465;29;20698;-87
2021/09/19 12:16:19;;;;;;;4.33;3.93;;;23.20;99.90;;;;;;4870522;29;20755;-87
2021/09/19 12:18:48;;;;;;;3.73;3.43;;;22.90;99.90;;;;;;4867327;29;20744;-86
2021/09/19 12:21:18;;;;;;;5.03;4.63;;;23.00;99.90;;;;;;4875608;29;20985;-87
2021/09/19 12:23:47;;;;;;;4.23;3.93;;;23.00;99.90;;;;;;4871270;29;20637;-87
2021/09/19 12:26:17;;;;;;;4.80;4.50;;;23.80;99.90;;;;;;4867060;29;20772;-88
2021/09/19 12:28:45;;;;;;;4.30;4.00;;;25.00;95.90;;;;;;4866114;29;20735;-86
2021/09/19 12:31:13;;;;;;;3.50;3.30;;;25.60;94.20;;;;;;4869434;29;20630;-87
2021/09/19 12:33:51;;;;;;;3.87;3.67;;;25.70;92.90;;;;;;4866406;29;20655;-87
2021/09/19 12:36:19;;;;;;;3.40;3.10;;;26.20;92.00;;;;;;4869462;29;20672;-88
2021/09/19 12:38:47;;;;;;;3.47;3.17;;;26.40;91.50;;;;;;4871039;29;20661;-88
2021/09/19 12:41:15;;;;;;;3.50;3.27;;;26.10;91.50;;;;;;4867605;29;20764;-88
2021/09/19 12:43:43;;;;;;;5.80;3.40;;;26.20;91.40;;;;;;4871260;29;20672;-88
2021/09/19 12:46:14;;;;;;;3.73;3.53;;;26.70;89.20;;;;;;4869622;29;20626;-85
2021/09/19 12:48:42;;;;;;;4.87;4.10;;;26.30;88.00;;;;;;4867893;29;21022;-88
2021/09/19 12:51:10;;;;;;;4.13;3.93;;;25.60;90.70;;;;;;4864360;29;20639;-88
2021/09/19 12:53:40;;;;;;;3.60;3.40;;;26.60;88.30;;;;;;4868783;29;20641;-88